Baza, Spain
Current Conditions -  °F | °C
As of 10:00 AM on Sunday 26 Oct 2014 (Local Time) from LEAM Reporting Station
Few Clouds Few Clouds  
Wind Chill: 73°   Ceiling: Unl
Heat Index: 73°   Visibility: 6mi
Dew Point: 41°   Wind: 12mph
Humidity: 31%   Direction: 330°NNW
Pressure: 30.09"   Gusts: NA
Location:  37.49°N, 2.77°W
Report Text: LEAM 260800Z 33010KT 300V010 9999 FEW030 23/05 Q1019
Loading
Personal Weather Stations






























Interactive Weather Map
Tropical Storm Tracking
New forecast layout! Learn more

10-Day Weather Forecast

Advertisements
Track Severe Weather on mobile